sensor_id;sensor_type;location;lat;lon;timestamp;pressure;altitude;pressure_sealevel;temperature
34807;BMP280;18310;55.586;12.286;2023-12-20T00:02:40;100525.66;;;10.19
34807;BMP280;18310;55.586;12.286;2023-12-20T00:05:50;100514.09;;;10.22
34807;BMP280;18310;55.586;12.286;2023-12-20T00:08:53;100501.31;;;10.22
34807;BMP280;18310;55.586;12.286;2023-12-20T00:11:56;100497.00;;;10.21
34807;BMP280;18310;55.586;12.286;2023-12-20T00:14:59;100503.47;;;10.17
34807;BMP280;18310;55.586;12.286;2023-12-20T00:18:02;100495.25;;;10.13
34807;BMP280;18310;55.586;12.286;2023-12-20T00:21:07;100491.53;;;10.06
34807;BMP280;18310;55.586;12.286;2023-12-20T00:24:10;100479.59;;;9.95
34807;BMP280;18310;55.586;12.286;2023-12-20T00:27:13;100479.44;;;9.87
34807;BMP280;18310;55.586;12.286;2023-12-20T00:30:16;100471.09;;;9.80
34807;BMP280;18310;55.586;12.286;2023-12-20T00:33:19;100475.19;;;9.74
34807;BMP280;18310;55.586;12.286;2023-12-20T00:36:24;100469.59;;;9.67
34807;BMP280;18310;55.586;12.286;2023-12-20T00:39:27;100483.41;;;9.62
34807;BMP280;18310;55.586;12.286;2023-12-20T00:42:33;100470.84;;;9.58
34807;BMP280;18310;55.586;12.286;2023-12-20T00:45:37;100465.34;;;9.54
34807;BMP280;18310;55.586;12.286;2023-12-20T00:48:41;100463.31;;;9.51
34807;BMP280;18310;55.586;12.286;2023-12-20T00:51:48;100458.69;;;9.52
34807;BMP280;18310;55.586;12.286;2023-12-20T00:54:52;100456.41;;;9.54
34807;BMP280;18310;55.586;12.286;2023-12-20T00:57:55;100430.44;;;9.40
34807;BMP280;18310;55.586;12.286;2023-12-20T01:00:58;100446.34;;;9.54
34807;BMP280;18310;55.586;12.286;2023-12-20T01:04:01;100431.22;;;9.57
34807;BMP280;18310;55.586;12.286;2023-12-20T01:07:08;100418.72;;;9.52
34807;BMP280;18310;55.586;12.286;2023-12-20T01:10:11;100416.97;;;9.60
34807;BMP280;18310;55.586;12.286;2023-12-20T01:13:14;100422.16;;;9.65
34807;BMP280;18310;55.586;12.286;2023-12-20T01:16:17;100405.94;;;9.68
34807;BMP280;18310;55.586;12.286;2023-12-20T01:19:20;100406.47;;;9.74
34807;BMP280;18310;55.586;12.286;2023-12-20T01:22:24;100403.94;;;9.81
34807;BMP280;18310;55.586;12.286;2023-12-20T01:25:27;100388.03;;;9.83
34807;BMP280;18310;55.586;12.286;2023-12-20T01:28:31;100388.50;;;9.85
34807;BMP280;18310;55.586;12.286;2023-12-20T01:31:34;100382.38;;;9.88
34807;BMP280;18310;55.586;12.286;2023-12-20T01:34:37;100382.03;;;9.89
34807;BMP280;18310;55.586;12.286;2023-12-20T01:37:41;100377.00;;;9.91
34807;BMP280;18310;55.586;12.286;2023-12-20T01:40:44;100375.16;;;9.96
34807;BMP280;18310;55.586;12.286;2023-12-20T01:43:47;100361.47;;;9.92
34807;BMP280;18310;55.586;12.286;2023-12-20T01:46:52;100356.94;;;9.96
34807;BMP280;18310;55.586;12.286;2023-12-20T01:49:56;100365.63;;;10.02
34807;BMP280;18310;55.586;12.286;2023-12-20T01:53:01;100363.75;;;10.06
34807;BMP280;18310;55.586;12.286;2023-12-20T01:56:05;100348.31;;;10.10
34807;BMP280;18310;55.586;12.286;2023-12-20T01:59:08;100351.81;;;10.10
34807;BMP280;18310;55.586;12.286;2023-12-20T02:02:12;100331.66;;;10.11
34807;BMP280;18310;55.586;12.286;2023-12-20T02:05:17;100336.38;;;10.14
34807;BMP280;18310;55.586;12.286;2023-12-20T02:08:22;100334.88;;;10.17
34807;BMP280;18310;55.586;12.286;2023-12-20T02:11:25;100338.03;;;10.19
34807;BMP280;18310;55.586;12.286;2023-12-20T02:14:28;100327.59;;;10.21
34807;BMP280;18310;55.586;12.286;2023-12-20T02:17:33;100319.09;;;10.22
34807;BMP280;18310;55.586;12.286;2023-12-20T02:20:36;100314.09;;;10.24
34807;BMP280;18310;55.586;12.286;2023-12-20T02:23:41;100305.16;;;10.24
34807;BMP280;18310;55.586;12.286;2023-12-20T02:26:44;100291.19;;;10.25
34807;BMP280;18310;55.586;12.286;2023-12-20T02:29:48;100288.84;;;10.24
34807;BMP280;18310;55.586;12.286;2023-12-20T02:32:52;100277.50;;;10.22
34807;BMP280;18310;55.586;12.286;2023-12-20T02:35:55;100279.50;;;10.25
34807;BMP280;18310;55.586;12.286;2023-12-20T02:39:00;100275.63;;;10.26
34807;BMP280;18310;55.586;12.286;2023-12-20T02:42:03;100266.31;;;10.27
34807;BMP280;18310;55.586;12.286;2023-12-20T02:45:07;100258.59;;;10.29
34807;BMP280;18310;55.586;12.286;2023-12-20T02:48:11;100250.75;;;10.24
34807;BMP280;18310;55.586;12.286;2023-12-20T02:51:14;100240.25;;;10.26
34807;BMP280;18310;55.586;12.286;2023-12-20T02:54:19;100235.72;;;10.30
34807;BMP280;18310;55.586;12.286;2023-12-20T02:57:22;100233.69;;;10.27
34807;BMP280;18310;55.586;12.286;2023-12-20T03:00:25;100239.91;;;10.27
34807;BMP280;18310;55.586;12.286;2023-12-20T03:03:28;100232.19;;;10.29
34807;BMP280;18310;55.586;12.286;2023-12-20T03:06:31;100225.53;;;10.27
34807;BMP280;18310;55.586;12.286;2023-12-20T03:09:36;100218.94;;;10.28
34807;BMP280;18310;55.586;12.286;2023-12-20T03:12:59;100203.84;;;10.30
34807;BMP280;18310;55.586;12.286;2023-12-20T03:16:08;100198.06;;;10.32
34807;BMP280;18310;55.586;12.286;2023-12-20T03:19:11;100202.44;;;10.37
34807;BMP280;18310;55.586;12.286;2023-12-20T03:22:14;100196.59;;;10.38
34807;BMP280;18310;55.586;12.286;2023-12-20T03:25:19;100191.63;;;10.40
34807;BMP280;18310;55.586;12.286;2023-12-20T03:28:22;100188.16;;;10.43
34807;BMP280;18310;55.586;12.286;2023-12-20T03:31:26;100185.53;;;10.47
34807;BMP280;18310;55.586;12.286;2023-12-20T03:34:29;100191.38;;;10.49
34807;BMP280;18310;55.586;12.286;2023-12-20T03:37:32;100187.94;;;10.52
34807;BMP280;18310;55.586;12.286;2023-12-20T03:40:36;100172.84;;;10.54
34807;BMP280;18310;55.586;12.286;2023-12-20T03:43:40;100174.84;;;10.57
34807;BMP280;18310;55.586;12.286;2023-12-20T03:46:43;100152.31;;;10.60
34807;BMP280;18310;55.586;12.286;2023-12-20T03:49:47;100148.41;;;10.58
34807;BMP280;18310;55.586;12.286;2023-12-20T03:52:50;100127.72;;;10.53
34807;BMP280;18310;55.586;12.286;2023-12-20T03:55:55;100144.25;;;10.64
34807;BMP280;18310;55.586;12.286;2023-12-20T03:58:59;100142.31;;;10.64
34807;BMP280;18310;55.586;12.286;2023-12-20T04:02:02;100144.72;;;10.69
34807;BMP280;18310;55.586;12.286;2023-12-20T04:05:06;100138.84;;;10.67
34807;BMP280;18310;55.586;12.286;2023-12-20T04:08:09;100140.88;;;10.70
34807;BMP280;18310;55.586;12.286;2023-12-20T04:11:14;100138.53;;;10.72
34807;BMP280;18310;55.586;12.286;2023-12-20T04:14:17;100142.47;;;10.75
34807;BMP280;18310;55.586;12.286;2023-12-20T04:17:20;100141.31;;;10.76
34807;BMP280;18310;55.586;12.286;2023-12-20T04:20:24;100125.44;;;10.78
34807;BMP280;18310;55.586;12.286;2023-12-20T04:23:28;100120.78;;;10.78
34807;BMP280;18310;55.586;12.286;2023-12-20T04:26:32;100120.09;;;10.85
34807;BMP280;18310;55.586;12.286;2023-12-20T04:29:35;100105.75;;;10.88
34807;BMP280;18310;55.586;12.286;2023-12-20T04:32:39;100108.63;;;10.99
34807;BMP280;18310;55.586;12.286;2023-12-20T04:35:42;100102.03;;;11.00
34807;BMP280;18310;55.586;12.286;2023-12-20T04:38:47;100107.22;;;11.08
34807;BMP280;18310;55.586;12.286;2023-12-20T04:41:52;100098.81;;;11.17
34807;BMP280;18310;55.586;12.286;2023-12-20T04:44:55;100096.13;;;11.20
34807;BMP280;18310;55.586;12.286;2023-12-20T04:47:58;100079.41;;;11.22
34807;BMP280;18310;55.586;12.286;2023-12-20T04:51:02;100087.22;;;11.23
34807;BMP280;18310;55.586;12.286;2023-12-20T04:54:05;100079.50;;;11.29
34807;BMP280;18310;55.586;12.286;2023-12-20T04:57:09;100085.34;;;11.31
34807;BMP280;18310;55.586;12.286;2023-12-20T05:00:13;100079.50;;;11.29
34807;BMP280;18310;55.586;12.286;2023-12-20T05:03:17;100085.72;;;11.30
34807;BMP280;18310;55.586;12.286;2023-12-20T05:06:20;100074.06;;;11.29
34807;BMP280;18310;55.586;12.286;2023-12-20T05:09:23;100077.97;;;11.32
34807;BMP280;18310;55.586;12.286;2023-12-20T05:12:35;100072.59;;;11.35
34807;BMP280;18310;55.586;12.286;2023-12-20T05:15:38;100063.63;;;11.35
34807;BMP280;18310;55.586;12.286;2023-12-20T05:18:41;100060.50;;;11.36
34807;BMP280;18310;55.586;12.286;2023-12-20T05:21:45;100059.38;;;11.37
34807;BMP280;18310;55.586;12.286;2023-12-20T05:25:07;100056.72;;;11.44
34807;BMP280;18310;55.586;12.286;2023-12-20T05:28:11;100052.84;;;11.45
34807;BMP280;18310;55.586;12.286;2023-12-20T05:31:14;100044.63;;;11.42
34807;BMP280;18310;55.586;12.286;2023-12-20T05:34:17;100048.53;;;11.44
34807;BMP280;18310;55.586;12.286;2023-12-20T05:37:21;100041.50;;;11.40
34807;BMP280;18310;55.586;12.286;2023-12-20T05:40:26;100039.97;;;11.42
34807;BMP280;18310;55.586;12.286;2023-12-20T05:43:29;100030.63;;;11.40
34807;BMP280;18310;55.586;12.286;2023-12-20T05:46:32;100027.09;;;11.39
34807;BMP280;18310;55.586;12.286;2023-12-20T05:49:35;100025.56;;;11.42
34807;BMP280;18310;55.586;12.286;2023-12-20T05:52:38;99990.69;;;11.21
34807;BMP280;18310;55.586;12.286;2023-12-20T05:55:43;100013.53;;;11.43
34807;BMP280;18310;55.586;12.286;2023-12-20T05:59:06;100008.75;;;11.36
34807;BMP280;18310;55.586;12.286;2023-12-20T06:02:09;100006.91;;;11.44
34807;BMP280;18310;55.586;12.286;2023-12-20T06:05:12;100000.56;;;11.33
34807;BMP280;18310;55.586;12.286;2023-12-20T06:08:16;99992.38;;;11.33
34807;BMP280;18310;55.586;12.286;2023-12-20T06:11:19;99994.00;;;11.37
34807;BMP280;18310;55.586;12.286;2023-12-20T06:14:23;99992.81;;;11.35
34807;BMP280;18310;55.586;12.286;2023-12-20T06:17:27;99986.56;;;11.34
34807;BMP280;18310;55.586;12.286;2023-12-20T06:20:32;99995.06;;;11.29
34807;BMP280;18310;55.586;12.286;2023-12-20T06:23:36;99975.91;;;11.22
34807;BMP280;18310;55.586;12.286;2023-12-20T06:26:39;99986.06;;;11.25
34807;BMP280;18310;55.586;12.286;2023-12-20T06:29:43;99983.28;;;11.21
34807;BMP280;18310;55.586;12.286;2023-12-20T06:32:47;99976.69;;;11.22
34807;BMP280;18310;55.586;12.286;2023-12-20T06:35:50;99967.34;;;11.20
34807;BMP280;18310;55.586;12.286;2023-12-20T06:39:29;99971.63;;;11.21
34807;BMP280;18310;55.586;12.286;2023-12-20T06:42:35;99972.00;;;11.19
34807;BMP280;18310;55.586;12.286;2023-12-20T06:45:54;99960.34;;;11.22
34807;BMP280;18310;55.586;12.286;2023-12-20T06:48:57;99961.09;;;11.19
34807;BMP280;18310;55.586;12.286;2023-12-20T06:52:00;99953.75;;;11.23
34807;BMP280;18310;55.586;12.286;2023-12-20T06:55:26;99956.03;;;11.21
34807;BMP280;18310;55.586;12.286;2023-12-20T06:58:29;99957.13;;;11.13
34807;BMP280;18310;55.586;12.286;2023-12-20T07:01:33;99952.09;;;11.15
34807;BMP280;18310;55.586;12.286;2023-12-20T07:04:39;99949.75;;;11.14
34807;BMP280;18310;55.586;12.286;2023-12-20T07:07:42;99954.06;;;11.18
34807;BMP280;18310;55.586;12.286;2023-12-20T07:10:47;99946.28;;;11.17
34807;BMP280;18310;55.586;12.286;2023-12-20T07:13:51;99970.16;;;11.27
34807;BMP280;18310;55.586;12.286;2023-12-20T07:16:54;99974.38;;;11.24
34807;BMP280;18310;55.586;12.286;2023-12-20T07:19:57;99983.72;;;11.23
34807;BMP280;18310;55.586;12.286;2023-12-20T07:23:00;99981.69;;;11.17
34807;BMP280;18310;55.586;12.286;2023-12-20T07:26:05;99965.63;;;11.08
34807;BMP280;18310;55.586;12.286;2023-12-20T07:29:09;99952.78;;;11.09
34807;BMP280;18310;55.586;12.286;2023-12-20T07:32:12;99941.69;;;10.91
34807;BMP280;18310;55.586;12.286;2023-12-20T07:35:16;99930.56;;;10.73
34807;BMP280;18310;55.586;12.286;2023-12-20T07:38:19;99902.56;;;10.73
34807;BMP280;18310;55.586;12.286;2023-12-20T07:41:24;99887.78;;;10.74
34807;BMP280;18310;55.586;12.286;2023-12-20T07:44:27;99876.44;;;10.65
34807;BMP280;18310;55.586;12.286;2023-12-20T07:47:33;99901.78;;;10.72
34807;BMP280;18310;55.586;12.286;2023-12-20T07:50:37;99911.13;;;10.71
34807;BMP280;18310;55.586;12.286;2023-12-20T07:53:40;99916.97;;;10.73
34807;BMP280;18310;55.586;12.286;2023-12-20T07:56:45;99922.38;;;10.70
34807;BMP280;18310;55.586;12.286;2023-12-20T07:59:49;99918.81;;;10.66
34807;BMP280;18310;55.586;12.286;2023-12-20T08:02:52;99927.66;;;10.59
34807;BMP280;18310;55.586;12.286;2023-12-20T08:05:55;99934.19;;;10.55
34807;BMP280;18310;55.586;12.286;2023-12-20T08:09:01;99926.75;;;10.48
34807;BMP280;18310;55.586;12.286;2023-12-20T08:12:09;99911.41;;;10.37
34807;BMP280;18310;55.586;12.286;2023-12-20T08:15:13;99910.94;;;10.31
34807;BMP280;18310;55.586;12.286;2023-12-20T08:18:16;99916.66;;;10.26
34807;BMP280;18310;55.586;12.286;2023-12-20T08:21:19;99912.25;;;10.18
34807;BMP280;18310;55.586;12.286;2023-12-20T08:24:24;99915.78;;;10.18
34807;BMP280;18310;55.586;12.286;2023-12-20T08:27:40;99921.91;;;10.12
34807;BMP280;18310;55.586;12.286;2023-12-20T08:30:44;99924.72;;;10.19
34807;BMP280;18310;55.586;12.286;2023-12-20T08:33:48;99914.72;;;10.26
34807;BMP280;18310;55.586;12.286;2023-12-20T08:36:51;99903.47;;;10.24
34807;BMP280;18310;55.586;12.286;2023-12-20T08:39:55;99893.88;;;10.34
34807;BMP280;18310;55.586;12.286;2023-12-20T08:43:00;99892.81;;;10.42
34807;BMP280;18310;55.586;12.286;2023-12-20T08:46:03;99883.22;;;10.52
34807;BMP280;18310;55.586;12.286;2023-12-20T08:49:07;99872.06;;;10.57
34807;BMP280;18310;55.586;12.286;2023-12-20T08:52:12;99876.03;;;10.66
34807;BMP280;18310;55.586;12.286;2023-12-20T08:55:15;99877.28;;;10.72
34807;BMP280;18310;55.586;12.286;2023-12-20T08:58:21;99873.53;;;10.81
34807;BMP280;18310;55.586;12.286;2023-12-20T09:01:24;99865.09;;;10.93
34807;BMP280;18310;55.586;12.286;2023-12-20T09:04:28;99849.59;;;10.97
34807;BMP280;18310;55.586;12.286;2023-12-20T09:07:35;99850.03;;;11.02
34807;BMP280;18310;55.586;12.286;2023-12-20T09:10:39;99848.91;;;11.07
34807;BMP280;18310;55.586;12.286;2023-12-20T09:13:44;99849.78;;;11.14
34807;BMP280;18310;55.586;12.286;2023-12-20T09:16:47;99843.53;;;11.14
34807;BMP280;18310;55.586;12.286;2023-12-20T09:19:53;99843.59;;;11.17
34807;BMP280;18310;55.586;12.286;2023-12-20T09:22:56;99847.22;;;11.29
34807;BMP280;18310;55.586;12.286;2023-12-20T09:26:22;99836.69;;;11.31
34807;BMP280;18310;55.586;12.286;2023-12-20T09:29:25;99834.47;;;11.40
34807;BMP280;18310;55.586;12.286;2023-12-20T09:32:33;99832.91;;;11.39
34807;BMP280;18310;55.586;12.286;2023-12-20T09:35:37;99819.28;;;11.42
34807;BMP280;18310;55.586;12.286;2023-12-20T09:38:40;99811.88;;;11.39
34807;BMP280;18310;55.586;12.286;2023-12-20T09:42:00;99815.81;;;11.45
34807;BMP280;18310;55.586;12.286;2023-12-20T09:45:07;99815.41;;;11.43
34807;BMP280;18310;55.586;12.286;2023-12-20T09:48:11;99820.09;;;11.46
34807;BMP280;18310;55.586;12.286;2023-12-20T09:51:36;99812.34;;;11.48
34807;BMP280;18310;55.586;12.286;2023-12-20T09:54:39;99810.06;;;11.50
34807;BMP280;18310;55.586;12.286;2023-12-20T09:57:42;99801.91;;;11.57
34807;BMP280;18310;55.586;12.286;2023-12-20T10:00:46;99800.38;;;11.60
34807;BMP280;18310;55.586;12.286;2023-12-20T10:03:50;99792.19;;;11.60
34807;BMP280;18310;55.586;12.286;2023-12-20T10:06:55;99800.00;;;11.61
34807;BMP280;18310;55.586;12.286;2023-12-20T10:10:00;99795.72;;;11.64
34807;BMP280;18310;55.586;12.286;2023-12-20T10:13:05;99788.72;;;11.66
34807;BMP280;18310;55.586;12.286;2023-12-20T10:16:09;99787.19;;;11.65
34807;BMP280;18310;55.586;12.286;2023-12-20T10:19:16;99780.91;;;11.61
34807;BMP280;18310;55.586;12.286;2023-12-20T10:22:21;99777.88;;;11.70
34807;BMP280;18310;55.586;12.286;2023-12-20T10:25:25;99776.72;;;11.75
34807;BMP280;18310;55.586;12.286;2023-12-20T10:28:33;99766.59;;;11.72
34807;BMP280;18310;55.586;12.286;2023-12-20T10:31:38;99766.25;;;11.80
34807;BMP280;18310;55.586;12.286;2023-12-20T10:34:42;99775.56;;;11.72
34807;BMP280;18310;55.586;12.286;2023-12-20T10:37:46;99775.47;;;11.61
34807;BMP280;18310;55.586;12.286;2023-12-20T10:40:54;99779.38;;;11.64
34807;BMP280;18310;55.586;12.286;2023-12-20T10:43:59;99785.59;;;11.64
34807;BMP280;18310;55.586;12.286;2023-12-20T10:47:04;99780.84;;;11.54
34807;BMP280;18310;55.586;12.286;2023-12-20T10:50:08;99781.63;;;11.55
34807;BMP280;18310;55.586;12.286;2023-12-20T10:53:14;99783.94;;;11.53
34807;BMP280;18310;55.586;12.286;2023-12-20T10:56:18;99768.78;;;11.52
34807;BMP280;18310;55.586;12.286;2023-12-20T10:59:23;99770.66;;;11.44
34807;BMP280;18310;55.586;12.286;2023-12-20T11:02:39;99758.22;;;11.43
34807;BMP280;18310;55.586;12.286;2023-12-20T11:05:46;99750.38;;;11.35
34807;BMP280;18310;55.586;12.286;2023-12-20T11:08:59;99753.03;;;11.31
34807;BMP280;18310;55.586;12.286;2023-12-20T11:12:16;99746.81;;;11.31
34807;BMP280;18310;55.586;12.286;2023-12-20T11:15:21;99739.03;;;11.29
34807;BMP280;18310;55.586;12.286;2023-12-20T11:18:28;99747.53;;;11.24
34807;BMP280;18310;55.586;12.286;2023-12-20T11:21:32;99737.84;;;11.27
34807;BMP280;18310;55.586;12.286;2023-12-20T11:24:44;99731.25;;;11.31
34807;BMP280;18310;55.586;12.286;2023-12-20T11:28:06;99731.25;;;11.31
34807;BMP280;18310;55.586;12.286;2023-12-20T11:31:13;99728.53;;;11.31
34807;BMP280;18310;55.586;12.286;2023-12-20T11:34:17;99718.06;;;11.37
34807;BMP280;18310;55.586;12.286;2023-12-20T11:37:20;99721.47;;;11.23
34807;BMP280;18310;55.586;12.286;2023-12-20T11:40:25;99719.16;;;11.25
34807;BMP280;18310;55.586;12.286;2023-12-20T11:43:34;99706.69;;;11.20
34807;BMP280;18310;55.586;12.286;2023-12-20T11:46:39;99713.34;;;11.30
34807;BMP280;18310;55.586;12.286;2023-12-20T11:49:42;99705.16;;;11.30
34807;BMP280;18310;55.586;12.286;2023-12-20T11:52:45;99712.22;;;11.35
34807;BMP280;18310;55.586;12.286;2023-12-20T11:55:50;99711.41;;;11.31
34807;BMP280;18310;55.586;12.286;2023-12-20T11:58:53;99707.16;;;11.37
34807;BMP280;18310;55.586;12.286;2023-12-20T12:02:06;99713.03;;;11.35
34807;BMP280;18310;55.586;12.286;2023-12-20T12:05:10;99703.28;;;11.38
34807;BMP280;18310;55.586;12.286;2023-12-20T12:08:13;99713.84;;;11.46
34807;BMP280;18310;55.586;12.286;2023-12-20T12:11:18;99713.06;;;11.42
34807;BMP280;18310;55.586;12.286;2023-12-20T12:14:21;99701.34;;;11.38
34807;BMP280;18310;55.586;12.286;2023-12-20T12:17:31;99705.66;;;11.43
34807;BMP280;18310;55.586;12.286;2023-12-20T12:20:38;99705.72;;;11.53
34807;BMP280;18310;55.586;12.286;2023-12-20T12:23:41;99713.50;;;11.51
34807;BMP280;18310;55.586;12.286;2023-12-20T12:26:51;99707.66;;;11.49
34807;BMP280;18310;55.586;12.286;2023-12-20T12:30:16;99704.16;;;11.49
34807;BMP280;18310;55.586;12.286;2023-12-20T12:33:20;99699.06;;;11.47
34807;BMP280;18310;55.586;12.286;2023-12-20T12:36:23;99709.66;;;11.59
34807;BMP280;18310;55.586;12.286;2023-12-20T12:39:27;99703.00;;;11.53
34807;BMP280;18310;55.586;12.286;2023-12-20T12:42:34;99713.16;;;11.60
34807;BMP280;18310;55.586;12.286;2023-12-20T12:45:38;99709.59;;;11.52
34807;BMP280;18310;55.586;12.286;2023-12-20T12:48:41;99708.03;;;11.48
34807;BMP280;18310;55.586;12.286;2023-12-20T12:51:48;99709.19;;;11.47
34807;BMP280;18310;55.586;12.286;2023-12-20T12:54:51;99715.78;;;11.42
34807;BMP280;18310;55.586;12.286;2023-12-20T12:57:55;99722.78;;;11.43
34807;BMP280;18310;55.586;12.286;2023-12-20T13:00:59;99715.03;;;11.52
34807;BMP280;18310;55.586;12.286;2023-12-20T13:04:03;99706.81;;;11.42
34807;BMP280;18310;55.586;12.286;2023-12-20T13:07:12;99701.38;;;11.42
34807;BMP280;18310;55.586;12.286;2023-12-20T13:10:16;99707.16;;;11.33
34807;BMP280;18310;55.586;12.286;2023-12-20T13:13:19;99730.56;;;11.45
34807;BMP280;18310;55.586;12.286;2023-12-20T13:16:24;99723.59;;;11.44
34807;BMP280;18310;55.586;12.286;2023-12-20T13:19:27;99735.63;;;11.39
34807;BMP280;18310;55.586;12.286;2023-12-20T13:22:34;99727.41;;;11.36
34807;BMP280;18310;55.586;12.286;2023-12-20T13:25:38;99728.59;;;11.38
34807;BMP280;18310;55.586;12.286;2023-12-20T13:28:41;99723.50;;;11.37
34807;BMP280;18310;55.586;12.286;2023-12-20T13:31:45;99744.50;;;11.33
34807;BMP280;18310;55.586;12.286;2023-12-20T13:34:49;99712.44;;;11.12
34807;BMP280;18310;55.586;12.286;2023-12-20T13:38:16;99752.22;;;11.23
34807;BMP280;18310;55.586;12.286;2023-12-20T13:41:20;99748.31;;;11.21
34807;BMP280;18310;55.586;12.286;2023-12-20T13:44:23;99757.91;;;11.08
34807;BMP280;18310;55.586;12.286;2023-12-20T13:47:35;99757.91;;;11.08
34807;BMP280;18310;55.586;12.286;2023-12-20T13:50:41;99750.00;;;10.96
34807;BMP280;18310;55.586;12.286;2023-12-20T13:53:46;99764.34;;;10.89
34807;BMP280;18310;55.586;12.286;2023-12-20T13:56:50;99760.78;;;10.82
34807;BMP280;18310;55.586;12.286;2023-12-20T14:00:11;99768.91;;;10.78
34807;BMP280;18310;55.586;12.286;2023-12-20T14:03:16;99773.06;;;10.68
34807;BMP280;18310;55.586;12.286;2023-12-20T14:06:21;99771.09;;;10.65
34807;BMP280;18310;55.586;12.286;2023-12-20T14:09:26;99767.16;;;10.63
34807;BMP280;18310;55.586;12.286;2023-12-20T14:12:34;99769.47;;;10.61
34807;BMP280;18310;55.586;12.286;2023-12-20T14:15:38;99773.28;;;10.53
34807;BMP280;18310;55.586;12.286;2023-12-20T14:18:41;99781.78;;;10.48
34807;BMP280;18310;55.586;12.286;2023-12-20T14:21:45;99775.06;;;10.42
34807;BMP280;18310;55.586;12.286;2023-12-20T14:24:50;99783.19;;;10.38
34807;BMP280;18310;55.586;12.286;2023-12-20T14:27:53;99763.38;;;10.38
34807;BMP280;18310;55.586;12.286;2023-12-20T14:30:57;99794.22;;;10.49
34807;BMP280;18310;55.586;12.286;2023-12-20T14:34:00;99789.56;;;10.49
34807;BMP280;18310;55.586;12.286;2023-12-20T14:37:05;99787.59;;;10.50
34807;BMP280;18310;55.586;12.286;2023-12-20T14:40:11;99779.56;;;10.57
34807;BMP280;18310;55.586;12.286;2023-12-20T14:43:17;99785.00;;;10.60
34807;BMP280;18310;55.586;12.286;2023-12-20T14:46:21;99782.78;;;10.66
34807;BMP280;18310;55.586;12.286;2023-12-20T14:49:24;99793.22;;;10.64
34807;BMP280;18310;55.586;12.286;2023-12-20T14:52:28;99797.44;;;10.58
34807;BMP280;18310;55.586;12.286;2023-12-20T14:55:33;99791.63;;;10.59
34807;BMP280;18310;55.586;12.286;2023-12-20T14:58:37;99796.53;;;10.47
34807;BMP280;18310;55.586;12.286;2023-12-20T15:01:40;99791.09;;;10.47
34807;BMP280;18310;55.586;12.286;2023-12-20T15:04:45;99791.03;;;10.43
34807;BMP280;18310;55.586;12.286;2023-12-20T15:07:48;99786.81;;;10.46
34807;BMP280;18310;55.586;12.286;2023-12-20T15:10:52;99791.28;;;10.31
34807;BMP280;18310;55.586;12.286;2023-12-20T15:13:56;99800.94;;;10.28
34807;BMP280;18310;55.586;12.286;2023-12-20T15:17:00;99799.72;;;10.26
34807;BMP280;18310;55.586;12.286;2023-12-20T15:20:04;99795.34;;;10.18
34807;BMP280;18310;55.586;12.286;2023-12-20T15:23:07;99800.78;;;10.18
34807;BMP280;18310;55.586;12.286;2023-12-20T15:26:12;99806.41;;;10.02
34807;BMP280;18310;55.586;12.286;2023-12-20T15:29:15;99802.78;;;9.95
34807;BMP280;18310;55.586;12.286;2023-12-20T15:32:19;99806.13;;;9.84
34807;BMP280;18310;55.586;12.286;2023-12-20T15:35:22;99802.63;;;9.84
34807;BMP280;18310;55.586;12.286;2023-12-20T15:38:25;99800.66;;;9.81
34807;BMP280;18310;55.586;12.286;2023-12-20T15:41:30;99809.59;;;9.81
34807;BMP280;18310;55.586;12.286;2023-12-20T15:44:33;99812.94;;;9.71
34807;BMP280;18310;55.586;12.286;2023-12-20T15:47:36;99813.59;;;9.65
34807;BMP280;18310;55.586;12.286;2023-12-20T15:50:39;99832.25;;;9.66
34807;BMP280;18310;55.586;12.286;2023-12-20T15:53:43;99821.50;;;9.73
34807;BMP280;18310;55.586;12.286;2023-12-20T15:56:48;99825.38;;;9.72
34807;BMP280;18310;55.586;12.286;2023-12-20T15:59:51;99819.50;;;9.70
34807;BMP280;18310;55.586;12.286;2023-12-20T16:02:54;99817.88;;;9.66
34807;BMP280;18310;55.586;12.286;2023-12-20T16:05:57;99816.69;;;9.63
34807;BMP280;18310;55.586;12.286;2023-12-20T16:09:01;99815.16;;;9.66
34807;BMP280;18310;55.586;12.286;2023-12-20T16:12:06;99809.34;;;9.64
34807;BMP280;18310;55.586;12.286;2023-12-20T16:15:10;99814.13;;;9.74
34807;BMP280;18310;55.586;12.286;2023-12-20T16:18:14;99839.44;;;9.78
34807;BMP280;18310;55.586;12.286;2023-12-20T16:21:17;99841.19;;;9.89
34807;BMP280;18310;55.586;12.286;2023-12-20T16:24:20;99850.56;;;9.96
34807;BMP280;18310;55.586;12.286;2023-12-20T16:27:27;99869.97;;;10.20
34807;BMP280;18310;55.586;12.286;2023-12-20T16:30:31;99843.31;;;10.03
34807;BMP280;18310;55.586;12.286;2023-12-20T16:33:34;99847.75;;;9.88
34807;BMP280;18310;55.586;12.286;2023-12-20T16:36:49;99837.81;;;9.73
34807;BMP280;18310;55.586;12.286;2023-12-20T16:39:54;99827.97;;;9.65
34807;BMP280;18310;55.586;12.286;2023-12-20T16:42:58;99835.34;;;9.42
34807;BMP280;18310;55.586;12.286;2023-12-20T16:46:01;99835.50;;;9.30
34807;BMP280;18310;55.586;12.286;2023-12-20T16:49:07;99834.81;;;9.14
34807;BMP280;18310;55.586;12.286;2023-12-20T16:52:11;99839.78;;;9.08
34807;BMP280;18310;55.586;12.286;2023-12-20T16:55:14;99835.13;;;9.09
34807;BMP280;18310;55.586;12.286;2023-12-20T16:58:19;99831.31;;;9.13
34807;BMP280;18310;55.586;12.286;2023-12-20T17:01:22;99827.38;;;9.11
34807;BMP280;18310;55.586;12.286;2023-12-20T17:04:28;99834.47;;;9.15
34807;BMP280;18310;55.586;12.286;2023-12-20T17:07:34;99830.84;;;9.08
34807;BMP280;18310;55.586;12.286;2023-12-20T17:10:37;99835.84;;;9.05
34807;BMP280;18310;55.586;12.286;2023-12-20T17:13:43;99843.63;;;9.07
34807;BMP280;18310;55.586;12.286;2023-12-20T17:16:47;99847.81;;;9.04
34807;BMP280;18310;55.586;12.286;2023-12-20T17:19:51;99830.88;;;9.11
34807;BMP280;18310;55.586;12.286;2023-12-20T17:22:55;99840.56;;;9.09
34807;BMP280;18310;55.586;12.286;2023-12-20T17:25:58;99836.97;;;9.04
34807;BMP280;18310;55.586;12.286;2023-12-20T17:29:03;99828.81;;;9.04